createdAt,value
2022-10-01T00:00:19.314Z,51.0
2022-10-01T00:05:19.301Z,50.8
2022-10-01T00:10:16.298Z,50.6
2022-10-01T00:15:16.198Z,50.5
2022-10-01T00:20:19.277Z,50.3
2022-10-01T00:25:19.397Z,50.1
2022-10-01T00:30:19.471Z,49.9
2022-10-01T00:35:19.438Z,49.8
2022-10-01T00:40:19.309Z,49.8
2022-10-01T00:45:19.335Z,49.8
2022-10-01T00:50:19.338Z,49.8
2022-10-01T00:55:19.412Z,49.7
2022-10-01T01:00:19.378Z,49.6
2022-10-01T01:05:16.464Z,49.5
2022-10-01T01:10:20.229Z,49.4
2022-10-01T01:15:19.529Z,49.3
2022-10-01T01:20:19.491Z,49.2
2022-10-01T01:25:19.434Z,49.1
2022-10-01T01:30:19.450Z,49.0
2022-10-01T01:35:19.379Z,49.0
2022-10-01T01:40:19.424Z,48.9
2022-10-01T01:45:19.474Z,48.8
2022-10-01T01:50:19.552Z,48.8
2022-10-01T01:55:16.444Z,48.8
2022-10-01T02:00:16.458Z,48.8
2022-10-01T02:05:19.726Z,48.8
2022-10-01T02:10:19.502Z,48.7
2022-10-01T02:15:19.526Z,48.6
2022-10-01T02:20:19.572Z,48.7
2022-10-01T02:25:19.428Z,48.6
2022-10-01T02:30:19.615Z,48.5
2022-10-01T02:35:19.457Z,48.5
2022-10-01T02:40:19.542Z,48.3
2022-10-01T02:45:19.560Z,48.3
2022-10-01T02:50:16.490Z,48.3
2022-10-01T02:55:16.517Z,48.4
2022-10-01T03:00:19.508Z,48.5
2022-10-01T03:05:19.585Z,48.5
2022-10-01T03:10:19.624Z,48.5
2022-10-01T03:15:19.766Z,48.4
2022-10-01T03:20:19.690Z,48.5
2022-10-01T03:25:19.725Z,48.3
2022-10-01T03:30:19.617Z,48.2
2022-10-01T03:35:19.570Z,48.1
2022-10-01T03:40:19.802Z,48.0
2022-10-01T03:45:16.634Z,48.0
2022-10-01T03:50:16.802Z,47.9
2022-10-01T03:55:19.695Z,47.9
2022-10-01T04:00:15.876Z,47.8
2022-10-01T04:05:18.975Z,47.6
2022-10-01T04:10:18.963Z,47.5
2022-10-01T04:15:19.001Z,47.5
2022-10-01T04:20:19.051Z,47.4
2022-10-01T04:25:19.029Z,47.3
2022-10-01T04:30:19.118Z,47.2
2022-10-01T04:35:18.876Z,47.2
2022-10-01T04:40:19.002Z,47.0
2022-10-01T04:45:19.018Z,47.0
2022-10-01T04:50:15.990Z,47.0
2022-10-01T04:55:15.864Z,47.0
2022-10-01T05:00:19.007Z,47.0
2022-10-01T05:05:19.094Z,46.9
2022-10-01T05:10:18.987Z,46.9
2022-10-01T05:15:19.006Z,46.8
2022-10-01T05:20:19.114Z,46.6
2022-10-01T05:25:19.024Z,46.4
2022-10-01T05:30:18.996Z,46.3
2022-10-01T05:35:19.069Z,46.2
2022-10-01T05:40:19.071Z,46.1
2022-10-01T05:45:16.082Z,46.0
2022-10-01T05:50:15.992Z,45.9
2022-10-01T05:55:19.106Z,45.8
2022-10-01T06:00:19.171Z,45.8
2022-10-01T06:05:19.019Z,45.7
2022-10-01T06:10:19.096Z,45.7
2022-10-01T06:15:19.209Z,45.8
2022-10-01T06:20:19.181Z,45.9
2022-10-01T06:25:19.085Z,45.8
2022-10-01T06:30:19.085Z,45.8
2022-10-01T06:35:19.054Z,45.8
2022-10-01T06:40:16.133Z,45.7
2022-10-01T06:45:19.185Z,45.6
2022-10-01T06:50:19.190Z,45.4
2022-10-01T06:55:19.179Z,45.3
2022-10-01T07:00:19.135Z,45.1
2022-10-01T07:05:19.210Z,45.0
2022-10-01T07:10:19.118Z,44.9
2022-10-01T07:15:19.131Z,44.8
2022-10-01T07:20:19.202Z,44.9
2022-10-01T07:25:19.158Z,44.7
2022-10-01T07:30:16.274Z,44.5
2022-10-01T07:35:16.118Z,44.5
2022-10-01T07:40:19.275Z,44.4
2022-10-01T07:45:19.285Z,44.5
2022-10-01T07:50:19.269Z,44.5
2022-10-01T07:55:19.184Z,44.6
2022-10-01T08:00:19.313Z,44.7
2022-10-01T08:05:19.249Z,44.7
2022-10-01T08:10:19.257Z,44.8
2022-10-01T08:15:19.241Z,44.9
2022-10-01T08:20:19.243Z,44.9
2022-10-01T08:25:16.279Z,44.9
2022-10-01T08:30:16.238Z,44.9
2022-10-01T08:35:19.582Z,44.9
2022-10-01T08:40:19.283Z,44.9
2022-10-01T08:45:19.322Z,45.0
2022-10-01T08:50:19.580Z,45.0
2022-10-01T08:55:19.290Z,45.0
2022-10-01T09:00:19.354Z,45.0
2022-10-01T09:05:19.341Z,45.0
2022-10-01T09:10:19.464Z,45.0
2022-10-01T09:15:19.389Z,45.1
2022-10-01T09:20:16.323Z,45.0
2022-10-01T09:25:16.496Z,45.0
2022-10-01T09:30:19.473Z,45.1
2022-10-01T09:35:19.572Z,45.2
2022-10-01T09:40:19.442Z,45.2
2022-10-01T09:45:19.467Z,45.4
2022-10-01T09:50:19.494Z,45.4
2022-10-01T09:55:19.462Z,45.4
2022-10-01T10:00:19.513Z,45.6
2022-10-01T10:05:19.453Z,45.7
2022-10-01T10:10:16.467Z,45.9
2022-10-01T10:15:16.483Z,46.0
2022-10-01T10:20:19.635Z,46.1
2022-10-01T10:25:19.477Z,46.2
2022-10-01T10:30:19.621Z,46.5
2022-10-01T10:35:19.492Z,46.4
2022-10-01T10:40:19.578Z,46.4
2022-10-01T10:45:19.569Z,46.9
2022-10-01T10:50:19.663Z,47.0
2022-10-01T10:55:19.558Z,47.0
2022-10-01T11:00:19.612Z,47.1
2022-10-01T11:05:16.667Z,47.0
2022-10-01T11:10:16.614Z,46.9
2022-10-01T11:15:19.658Z,46.9
2022-10-01T11:20:20.967Z,47.0
2022-10-01T11:25:19.870Z,47.0
2022-10-01T11:30:19.560Z,47.0
2022-10-01T11:35:19.645Z,47.0
2022-10-01T11:40:19.833Z,46.9
2022-10-01T11:45:19.669Z,47.1
2022-10-01T11:50:19.705Z,47.2
2022-10-01T11:55:19.744Z,47.2
2022-10-01T12:00:16.609Z,47.3
2022-10-01T12:05:19.959Z,47.4
2022-10-01T12:10:19.766Z,47.4
2022-10-01T12:15:19.718Z,47.6
2022-10-01T12:20:19.729Z,47.8
2022-10-01T12:25:19.789Z,48.0
2022-10-01T12:30:19.860Z,48.3
2022-10-01T12:35:19.736Z,48.5
2022-10-01T12:40:19.780Z,48.5
2022-10-01T12:45:19.747Z,48.5
2022-10-01T12:50:16.663Z,48.6
2022-10-01T12:55:16.676Z,48.6
2022-10-01T13:00:19.847Z,48.8
2022-10-01T13:05:19.896Z,48.9
2022-10-01T13:10:19.792Z,49.0
2022-10-01T13:15:19.789Z,49.2
2022-10-01T13:20:19.830Z,49.3
2022-10-01T13:25:19.842Z,49.3
2022-10-01T13:30:19.863Z,49.0
2022-10-01T13:35:19.957Z,48.9
2022-10-01T13:40:19.863Z,48.9
2022-10-01T13:45:16.902Z,48.7
2022-10-01T13:50:16.781Z,48.7
2022-10-01T13:55:20.018Z,48.8
2022-10-01T14:00:19.910Z,49.0
2022-10-01T14:05:20.034Z,49.2
2022-10-01T14:10:20.018Z,49.3
2022-10-01T14:15:19.940Z,49.5
2022-10-01T14:20:19.945Z,49.6
2022-10-01T14:25:19.986Z,49.8
2022-10-01T14:30:20.060Z,50.1
2022-10-01T14:35:16.922Z,50.1
2022-10-01T14:40:16.821Z,50.3
2022-10-01T14:45:19.956Z,50.4
2022-10-01T14:50:20.045Z,50.3
2022-10-01T14:55:20.040Z,50.3
2022-10-01T15:00:20.086Z,50.4
2022-10-01T15:05:20.484Z,50.5
2022-10-01T15:10:19.983Z,50.8
2022-10-01T15:15:20.066Z,51.1
2022-10-01T15:20:20.026Z,51.2
2022-10-01T15:25:20.105Z,51.5
2022-10-01T15:30:16.921Z,51.6
2022-10-01T15:35:16.947Z,51.7
2022-10-01T15:40:20.270Z,51.8
2022-10-01T15:45:20.043Z,52.0
2022-10-01T15:50:20.069Z,52.1
2022-10-01T15:55:20.125Z,52.3
2022-10-01T16:00:20.131Z,52.3
2022-10-01T16:05:20.048Z,52.6
2022-10-01T16:10:20.107Z,52.6
2022-10-01T16:15:20.124Z,52.6
2022-10-01T16:20:20.117Z,52.4
2022-10-01T16:25:17.064Z,52.4
2022-10-01T16:30:17.153Z,52.4
2022-10-01T16:35:20.246Z,52.6
2022-10-01T16:40:20.149Z,52.6
2022-10-01T16:45:20.130Z,52.7
2022-10-01T16:50:20.455Z,52.8
2022-10-01T16:55:20.212Z,52.9
2022-10-01T17:00:20.118Z,53.0
2022-10-01T17:05:20.219Z,53.2
2022-10-01T17:10:20.195Z,53.4
2022-10-01T17:15:17.075Z,53.7
2022-10-01T17:20:17.032Z,53.9
2022-10-01T17:25:20.188Z,54.1
2022-10-01T17:30:20.202Z,54.2
2022-10-01T17:35:20.212Z,54.3
2022-10-01T17:40:20.177Z,54.6
2022-10-01T17:45:20.214Z,54.5
2022-10-01T17:50:20.226Z,54.5
2022-10-01T17:55:20.306Z,54.7
2022-10-01T18:00:20.237Z,54.8
2022-10-01T18:05:20.242Z,54.9
2022-10-01T18:10:17.178Z,55.0
2022-10-01T18:15:17.125Z,55.2
2022-10-01T18:20:20.477Z,55.4
2022-10-01T18:25:20.290Z,55.5
2022-10-01T18:30:20.382Z,55.8
2022-10-01T18:35:20.406Z,56.0
2022-10-01T18:40:20.324Z,56.2
2022-10-01T18:45:20.384Z,56.5
2022-10-01T18:50:20.419Z,56.6
2022-10-01T18:55:21.527Z,56.8
2022-10-01T19:00:20.307Z,57.0
2022-10-01T19:05:17.306Z,57.0
2022-10-01T19:10:20.494Z,57.1
2022-10-01T19:15:20.427Z,57.1
2022-10-01T19:20:20.438Z,57.1
2022-10-01T19:25:20.442Z,57.2
2022-10-01T19:30:20.578Z,57.4
2022-10-01T19:35:20.405Z,57.5
2022-10-01T19:40:20.515Z,57.8
2022-10-01T19:45:20.405Z,57.8
2022-10-01T19:50:20.444Z,57.9
2022-10-01T19:55:17.366Z,58.0
2022-10-01T20:00:17.346Z,57.9
2022-10-01T20:05:20.609Z,57.7
2022-10-01T20:10:20.468Z,57.6
2022-10-01T20:15:20.442Z,57.6
2022-10-01T20:20:20.618Z,57.6
2022-10-01T20:25:20.441Z,57.7
2022-10-01T20:30:20.694Z,57.6
2022-10-01T20:35:20.542Z,57.7
2022-10-01T20:40:20.592Z,57.7
2022-10-01T20:45:20.559Z,57.5
2022-10-01T20:50:17.402Z,57.5
2022-10-01T20:55:17.518Z,57.5
2022-10-01T21:00:20.694Z,57.5
2022-10-01T21:05:17.408Z,57.5
2022-10-01T21:10:20.564Z,57.4
2022-10-01T21:15:20.580Z,57.3
2022-10-01T21:20:20.518Z,57.2
2022-10-01T21:25:18.547Z,57.2
2022-10-01T21:30:15.412Z,57.1
2022-10-01T21:35:18.552Z,57.0
2022-10-01T21:40:18.524Z,57.0
2022-10-01T21:45:18.659Z,57.0
2022-10-01T21:50:18.719Z,56.9
2022-10-01T21:55:18.613Z,56.9
2022-10-01T22:00:18.602Z,56.8
2022-10-01T22:05:18.619Z,56.8
2022-10-01T22:10:18.653Z,56.8
2022-10-01T22:15:18.666Z,56.7
2022-10-01T22:20:15.464Z,56.5
2022-10-01T22:25:15.516Z,56.4
2022-10-01T22:30:18.686Z,56.3
2022-10-01T22:35:18.691Z,56.0
2022-10-01T22:40:18.735Z,55.8
2022-10-01T22:45:18.660Z,55.6
2022-10-01T22:50:18.615Z,55.5
2022-10-01T22:55:18.814Z,55.6
2022-10-01T23:00:18.732Z,55.5
2022-10-01T23:05:18.749Z,55.4
2022-10-01T23:10:18.660Z,55.3
2022-10-01T23:15:15.778Z,55.2
2022-10-01T23:20:15.663Z,55.3
2022-10-01T23:25:18.791Z,55.5
2022-10-01T23:30:18.736Z,55.4
2022-10-01T23:35:18.732Z,55.5
2022-10-01T23:40:18.709Z,55.6
2022-10-01T23:45:18.793Z,55.6
2022-10-01T23:50:18.752Z,55.4
2022-10-01T23:55:18.736Z,55.3
